Time;durP1;ratioP1;P1;durP2;ratioP2;P2;SDS_P1;SDS_P2;PMS_P1;PMS_P2;Temp;Humidity;BMP_temperature;BMP_pressure;BME280_temperature;BME280_humidity;BME280_pressure;Samples;Min_cycle;Max_cycle;Signal;HPM_P1;HPM_P2
2023/07/09 03:16:37;;;;;;;5.05;1.00;;;22.20;70.10;;;;;;6113909;22;89492;-66
2023/07/09 03:19:04;;;;;;;5.10;1.15;;;22.20;69.10;;;;;;6142070;22;89548;-64
2023/07/09 03:21:30;;;;;;;4.97;1.88;;;22.20;70.00;;;;;;6144457;22;88673;-68
2023/07/09 03:23:57;;;;;;;4.28;1.20;;;22.20;69.70;;;;;;6147868;22;87528;-67
2023/07/09 03:26:25;;;;;;;3.78;1.23;;;22.10;69.80;;;;;;6148370;22;87481;-65
2023/07/09 03:28:51;;;;;;;6.50;1.40;;;22.20;70.00;;;;;;6148010;22;88249;-65
2023/07/09 03:31:18;;;;;;;4.13;1.95;;;22.20;70.10;;;;;;6137054;22;87540;-66
2023/07/09 03:33:45;;;;;;;6.93;1.25;;;22.20;69.90;;;;;;6148216;22;87286;-68
2023/07/09 03:36:11;;;;;;;8.80;1.50;;;22.20;70.40;;;;;;6148520;22;86771;-67
2023/07/09 03:38:37;;;;;;;4.43;1.45;;;22.20;70.00;;;;;;6149164;22;87786;-66
2023/07/09 03:41:02;;;;;;;3.70;1.50;;;22.20;70.40;;;;;;6149372;22;88002;-68
2023/07/09 03:43:28;;;;;;;4.03;1.63;;;22.20;70.40;;;;;;6146406;22;88587;-67
2023/07/09 03:45:54;;;;;;;4.38;1.77;;;22.10;70.50;;;;;;6151047;22;87097;-67
2023/07/09 03:48:20;;;;;;;11.73;1.75;;;22.10;70.20;;;;;;6147401;22;87568;-67
2023/07/09 03:50:47;;;;;;;6.57;1.58;;;22.10;70.80;;;;;;6147688;22;87606;-65
2023/07/09 03:53:14;;;;;;;4.35;1.95;;;22.10;71.40;;;;;;6148086;22;87430;-66
2023/07/09 03:55:40;;;;;;;4.68;1.80;;;22.10;71.00;;;;;;6147699;22;87467;-65
2023/07/09 03:58:06;;;;;;;6.03;1.73;;;22.00;71.40;;;;;;6147372;22;88860;-66
2023/07/09 04:00:32;;;;;;;4.72;1.33;;;22.00;71.40;;;;;;6147613;22;87423;-65
2023/07/09 04:02:58;;;;;;;7.00;1.98;;;22.10;71.30;;;;;;6147676;22;87552;-64
2023/07/09 04:05:25;;;;;;;7.03;1.67;;;22.30;71.30;;;;;;6149341;22;87400;-66
2023/07/09 04:07:51;;;;;;;4.80;1.33;;;22.50;70.00;;;;;;6146977;22;89393;-66
2023/07/09 04:10:17;;;;;;;7.40;1.65;;;22.80;69.50;;;;;;6149454;22;89197;-66
2023/07/09 04:12:43;;;;;;;5.47;1.67;;;23.20;68.50;;;;;;6148938;22;87363;-66
2023/07/09 04:15:12;;;;;;;3.80;1.42;;;23.60;67.30;;;;;;6147351;22;87364;-66
2023/07/09 04:17:38;;;;;;;6.70;2.38;;;24.00;65.20;;;;;;6145673;22;87690;-66
2023/07/09 04:20:07;;;;;;;3.15;1.42;;;24.40;64.50;;;;;;6143621;22;87693;-66
2023/07/09 04:22:34;;;;;;;5.25;1.67;;;24.80;63.00;;;;;;6142902;22;87604;-66
2023/07/09 04:24:59;;;;;;;3.83;1.38;;;25.20;62.70;;;;;;6142298;22;86710;-67
2023/07/09 04:27:27;;;;;;;5.28;1.90;;;25.60;62.00;;;;;;6146300;22;87307;-67
2023/07/09 04:29:53;;;;;;;6.22;1.67;;;26.00;60.40;;;;;;6147510;22;88423;-68
2023/07/09 04:32:19;;;;;;;4.50;1.40;;;26.30;58.60;;;;;;6146722;22;88208;-67
2023/07/09 04:34:45;;;;;;;4.18;1.55;;;26.50;58.70;;;;;;6152579;22;87346;-66
2023/07/09 04:37:11;;;;;;;4.03;1.65;;;26.60;58.10;;;;;;6153784;22;88037;-66
2023/07/09 04:39:38;;;;;;;4.85;1.77;;;27.00;57.90;;;;;;6154216;22;87600;-65
2023/07/09 04:42:04;;;;;;;6.70;3.05;;;27.40;58.10;;;;;;6147445;22;87442;-66
2023/07/09 04:44:30;;;;;;;3.63;1.73;;;27.80;57.30;;;;;;6152577;22;87512;-67
2023/07/09 04:46:56;;;;;;;5.45;2.10;;;28.20;57.70;;;;;;6155211;22;88591;-66
2023/07/09 04:49:22;;;;;;;6.35;2.25;;;28.70;58.10;;;;;;6153488;22;86880;-66
2023/07/09 04:51:47;;;;;;;6.00;2.30;;;29.00;57.60;;;;;;6155818;22;87555;-65
2023/07/09 04:54:14;;;;;;;4.63;1.98;;;29.40;55.50;;;;;;6155811;22;87477;-67
2023/07/09 04:56:44;;;;;;;5.75;2.38;;;29.90;54.60;;;;;;6145092;22;89359;-68
2023/07/09 04:59:13;;;;;;;5.00;1.83;;;30.10;54.80;;;;;;6151260;22;89350;-66
2023/07/09 05:01:39;;;;;;;3.92;2.00;;;30.60;51.70;;;;;;6152124;22;87582;-67
2023/07/09 05:04:05;;;;;;;3.65;1.90;;;30.90;50.90;;;;;;6153607;22;87581;-67
2023/07/09 05:06:30;;;;;;;13.50;2.55;;;31.20;49.50;;;;;;6154267;22;88055;-66
2023/07/09 05:08:56;;;;;;;6.18;1.85;;;31.60;50.40;;;;;;6154063;22;87262;-67
2023/07/09 05:11:22;;;;;;;5.18;1.80;;;31.70;48.70;;;;;;6151474;22;87669;-65
2023/07/09 05:13:47;;;;;;;6.00;2.70;;;32.00;48.60;;;;;;6156400;22;86574;-65
2023/07/09 05:16:13;;;;;;;6.03;2.50;;;32.40;47.70;;;;;;6153875;22;88053;-64
2023/07/09 05:18:39;;;;;;;5.10;2.05;;;32.70;48.00;;;;;;6153548;22;87493;-67
2023/07/09 05:21:04;;;;;;;5.05;2.15;;;33.30;46.10;;;;;;6151775;22;88292;-65
2023/07/09 05:23:30;;;;;;;5.95;2.67;;;33.50;45.80;;;;;;6152938;22;87098;-67
2023/07/09 05:25:59;;;;;;;11.13;2.15;;;33.70;45.70;;;;;;6152717;22;88328;-67
2023/07/09 05:28:25;;;;;;;4.00;2.42;;;34.10;45.20;;;;;;6151505;22;87823;-66
2023/07/09 05:30:51;;;;;;;5.15;2.00;;;34.40;44.40;;;;;;6150937;22;87427;-68
2023/07/09 05:33:20;;;;;;;6.22;2.10;;;34.80;44.00;;;;;;6152934;22;87373;-66
2023/07/09 05:35:47;;;;;;;4.90;2.33;;;35.30;43.20;;;;;;6150089;22;87799;-66
2023/07/09 05:38:14;;;;;;;5.78;2.80;;;35.30;43.00;;;;;;6155231;22;87888;-66
2023/07/09 05:40:40;;;;;;;4.28;2.33;;;35.30;43.40;;;;;;6155163;22;87366;-66
2023/07/09 05:43:05;;;;;;;5.60;2.88;;;35.30;43.40;;;;;;6156767;22;87443;-66
2023/07/09 05:45:31;;;;;;;5.28;2.20;;;35.40;42.90;;;;;;6153984;22;89732;-66
2023/07/09 05:48:00;;;;;;;6.18;2.72;;;35.40;42.40;;;;;;6155218;22;88950;-66
2023/07/09 05:50:28;;;;;;;8.68;2.55;;;35.90;41.80;;;;;;6156153;22;87721;-67
2023/07/09 05:52:54;;;;;;;6.20;2.70;;;36.20;41.70;;;;;;6157212;22;89369;-66
2023/07/09 05:55:20;;;;;;;9.15;2.47;;;36.40;40.60;;;;;;6128629;22;88508;-66
2023/07/09 05:57:46;;;;;;;5.57;3.53;;;36.50;41.50;;;;;;6154801;22;87527;-66
2023/07/09 06:00:12;;;;;;;4.70;2.47;;;36.00;40.70;;;;;;6155290;22;87235;-66
2023/07/09 06:02:38;;;;;;;5.32;2.78;;;36.10;41.70;;;;;;6156417;22;86617;-66
2023/07/09 06:05:05;;;;;;;4.78;3.00;;;36.20;41.50;;;;;;6154847;22;88592;-67
2023/07/09 06:07:30;;;;;;;9.57;2.78;;;36.60;41.20;;;;;;6155311;22;89225;-67
2023/07/09 06:09:57;;;;;;;5.30;3.10;;;37.30;40.70;;;;;;6155731;22;88772;-69
2023/07/09 06:12:23;;;;;;;4.47;2.53;;;38.10;39.40;;;;;;6156873;22;87168;-67
2023/07/09 06:14:48;;;;;;;4.45;3.28;;;38.50;39.90;;;;;;6156189;22;88073;-66
2023/07/09 06:17:14;;;;;;;10.82;3.13;;;38.90;38.70;;;;;;6155050;22;87715;-67
2023/07/09 06:19:40;;;;;;;4.55;3.45;;;39.30;38.80;;;;;;6154497;22;87481;-66
2023/07/09 06:22:06;;;;;;;6.15;3.22;;;39.50;38.20;;;;;;6155213;22;87509;-66
2023/07/09 06:24:32;;;;;;;5.78;2.97;;;39.50;38.90;;;;;;6155281;22;88692;-66
2023/07/09 06:26:59;;;;;;;4.75;2.92;;;39.90;38.40;;;;;;6155234;22;88102;-66
2023/07/09 06:29:24;;;;;;;5.38;2.40;;;40.30;38.20;;;;;;6155707;22;86891;-67
2023/07/09 06:31:51;;;;;;;8.63;3.60;;;40.30;36.70;;;;;;6155947;22;87245;-67
2023/07/09 06:34:16;;;;;;;6.00;3.00;;;40.50;37.30;;;;;;6155532;22;89479;-66
2023/07/09 06:36:42;;;;;;;7.80;3.08;;;40.90;36.70;;;;;;6155521;22;89176;-65
2023/07/09 06:39:08;;;;;;;7.63;3.75;;;40.70;37.70;;;;;;6156538;22;86991;-66
2023/07/09 06:41:38;;;;;;;6.20;3.33;;;40.70;36.90;;;;;;6156959;22;87307;-66
2023/07/09 06:44:09;;;;;;;6.70;4.18;;;41.10;36.60;;;;;;6154801;22;87304;-66
2023/07/09 06:46:35;;;;;;;8.43;4.35;;;41.70;37.20;;;;;;6154262;22;88240;-67
2023/07/09 06:49:02;;;;;;;6.30;3.50;;;42.20;35.70;;;;;;6154763;22;87379;-66
2023/07/09 06:51:28;;;;;;;7.65;4.20;;;42.40;36.30;;;;;;6156669;22;87018;-66
2023/07/09 06:53:54;;;;;;;6.38;3.65;;;42.90;35.70;;;;;;6156605;22;88222;-67
2023/07/09 06:56:20;;;;;;;6.80;4.20;;;42.60;34.70;;;;;;6155567;22;87812;-67
2023/07/09 06:58:46;;;;;;;8.10;6.40;;;42.40;35.00;;;;;;6155047;22;87909;-67
2023/07/09 07:01:12;;;;;;;5.10;3.40;;;42.90;35.40;;;;;;6154209;22;86942;-66
2023/07/09 07:03:38;;;;;;;5.60;4.30;;;42.90;34.30;;;;;;6152824;22;88454;-67
2023/07/09 07:06:06;;;;;;;6.55;4.60;;;42.80;34.30;;;;;;6153421;22;87648;-67
2023/07/09 07:08:32;;;;;;;12.93;3.65;;;42.90;35.60;;;;;;6154835;22;87480;-67
2023/07/09 07:11:04;;;;;;;7.68;4.60;;;43.40;34.40;;;;;;6154374;22;87466;-67
2023/07/09 07:13:36;;;;;;;5.65;4.20;;;44.00;34.20;;;;;;6153564;22;88361;-67
2023/07/09 07:16:04;;;;;;;7.35;4.78;;;44.60;34.20;;;;;;6154718;22;87898;-68
2023/07/09 07:18:30;;;;;;;7.57;4.72;;;44.60;33.50;;;;;;6154353;22;87680;-68
2023/07/09 07:20:56;;;;;;;4.78;4.20;;;44.60;33.70;;;;;;6153481;22;87916;-68
2023/07/09 07:23:23;;;;;;;7.90;4.55;;;45.10;33.90;;;;;;6152783;22;88379;-69
2023/07/09 07:25:48;;;;;;;6.15;5.55;;;45.80;33.20;;;;;;6152629;22;88147;-67
2023/07/09 07:28:15;;;;;;;7.32;5.70;;;45.70;32.90;;;;;;6152621;22;87345;-66
2023/07/09 07:30:41;;;;;;;6.60;5.07;;;45.70;33.30;;;;;;6153593;22;87654;-67
2023/07/09 07:33:07;;;;;;;8.60;6.10;;;45.90;33.00;;;;;;6152013;22;87427;-66
2023/07/09 07:35:32;;;;;;;7.78;5.93;;;46.00;32.40;;;;;;6151896;22;87341;-68
2023/07/09 07:37:58;;;;;;;7.72;5.57;;;46.20;32.70;;;;;;6152859;22;87771;-67
2023/07/09 07:40:24;;;;;;;6.72;4.85;;;46.50;32.60;;;;;;6155690;22;86790;-66
2023/07/09 07:42:49;;;;;;;10.77;9.70;;;46.80;32.00;;;;;;6155192;22;88850;-67
2023/07/09 07:45:15;;;;;;;7.93;5.68;;;47.00;32.20;;;;;;6151093;22;87307;-67
2023/07/09 07:47:42;;;;;;;7.55;5.50;;;47.20;33.10;;;;;;6147001;22;88274;-68
2023/07/09 07:50:08;;;;;;;8.50;5.70;;;47.20;31.60;;;;;;6150957;22;87279;-67
2023/07/09 07:52:37;;;;;;;7.95;7.22;;;47.20;31.10;;;;;;6151561;22;87446;-68
2023/07/09 07:55:06;;;;;;;9.63;8.77;;;46.80;31.80;;;;;;6151007;22;88507;-68
2023/07/09 07:57:32;;;;;;;6.88;6.18;;;46.40;31.20;;;;;;6151925;22;87389;-68
2023/07/09 07:59:58;;;;;;;5.75;5.25;;;46.20;32.00;;;;;;6153860;22;87793;-69
2023/07/09 08:02:24;;;;;;;6.35;5.43;;;46.50;33.20;;;;;;6151718;22;88069;-66
2023/07/09 08:04:50;;;;;;;6.95;6.20;;;46.70;32.80;;;;;;6153076;22;87174;-66
2023/07/09 08:07:18;;;;;;;9.20;6.65;;;46.90;32.40;;;;;;6154282;22;87161;-67
2023/07/09 08:09:44;;;;;;;9.85;5.80;;;47.80;32.20;;;;;;6154075;22;87502;-66
2023/07/09 08:12:11;;;;;;;6.85;5.95;;;48.30;32.60;;;;;;6151118;22;88926;-67
2023/07/09 08:14:38;;;;;;;9.38;8.57;;;48.90;30.80;;;;;;6150620;22;89469;-68
2023/07/09 08:17:04;;;;;;;7.30;6.15;;;49.10;30.60;;;;;;6153430;22;87339;-66
2023/07/09 08:19:30;;;;;;;8.25;7.32;;;49.10;30.60;;;;;;6156342;22;87578;-66
2023/07/09 08:21:56;;;;;;;7.28;6.57;;;49.40;30.50;;;;;;6156046;22;88068;-67
2023/07/09 08:24:22;;;;;;;13.00;7.95;;;49.60;30.30;;;;;;6153524;22;87307;-67
2023/07/09 08:26:48;;;;;;;8.27;7.13;;;50.20;30.30;;;;;;6152946;22;87448;-67
2023/07/09 08:29:14;;;;;;;9.00;7.95;;;50.90;30.40;;;;;;6155274;22;86666;-67
2023/07/09 08:31:41;;;;;;;12.63;8.30;;;51.30;29.70;;;;;;6154985;22;87627;-66
2023/07/09 08:34:08;;;;;;;7.75;6.80;;;51.30;29.50;;;;;;6155133;22;87200;-67
2023/07/09 08:36:33;;;;;;;13.10;11.88;;;50.70;29.40;;;;;;6153699;22;88291;-66
2023/07/09 08:39:02;;;;;;;8.63;7.40;;;50.70;29.80;;;;;;6155141;22;87274;-67
2023/07/09 08:41:45;;;;;;;14.13;8.85;;;50.70;30.10;;;;;;6153953;22;88068;-67
2023/07/09 08:44:41;;;;;;;9.52;8.55;;;50.80;29.60;;;;;;6155428;22;88008;-68
2023/07/09 08:47:10;;;;;;;10.40;9.50;;;51.20;30.00;;;;;;6152093;22;87231;-66
2023/07/09 08:49:41;;;;;;;9.90;8.93;;;51.50;29.70;;;;;;6156903;22;87458;-67
2023/07/09 08:52:30;;;;;;;9.98;9.07;;;51.60;30.10;;;;;;6154914;22;88708;-67
2023/07/09 08:54:59;;;;;;;9.80;8.88;;;51.20;32.00;;;;;;6156371;22;87904;-67
2023/07/09 08:57:33;;;;;;;11.32;8.48;;;51.40;32.30;;;;;;6153657;22;87414;-67
2023/07/09 09:00:22;;;;;;;10.68;8.10;;;51.90;32.30;;;;;;6156148;22;87042;-67
2023/07/09 09:02:56;;;;;;;9.38;8.50;;;51.70;31.80;;;;;;6155287;22;88348;-66
2023/07/09 09:05:23;;;;;;;7.47;6.78;;;51.20;32.10;;;;;;6152550;22;89002;-67
2023/07/09 09:07:53;;;;;;;;;;;51.30;33.10;;;;;;6152061;22;87345;-67
2023/07/09 09:10:33;;;;;;;9.63;8.82;;;51.30;33.00;;;;;;6152149;22;86980;-67
2023/07/09 09:13:12;;;;;;;9.73;8.73;;;51.30;32.50;;;;;;6154630;22;87646;-67
2023/07/09 09:15:42;;;;;;;9.85;8.73;;;51.30;32.50;;;;;;6150946;22;87750;-68
2023/07/09 09:18:27;;;;;;;9.25;7.95;;;50.80;33.20;;;;;;6154451;22;87350;-68
2023/07/09 09:21:03;;;;;;;11.68;10.05;;;51.20;32.90;;;;;;6154399;22;86632;-66
2023/07/09 09:23:39;;;;;;;10.75;8.38;;;51.30;33.20;;;;;;6153080;22;87421;-66
2023/07/09 09:26:16;;;;;;;9.70;8.52;;;50.90;32.70;;;;;;6151889;22;88180;-66
2023/07/09 09:28:42;;;;;;;9.43;7.15;;;50.70;33.00;;;;;;6152817;22;88624;-67
2023/07/09 09:31:11;;;;;;;10.85;9.75;;;50.80;32.30;;;;;;6152161;22;87577;-67
2023/07/09 09:33:44;;;;;;;12.38;8.20;;;51.10;32.30;;;;;;6152099;22;89256;-66
2023/07/09 09:36:25;;;;;;;9.82;8.15;;;51.20;32.10;;;;;;6150840;22;88372;-66
2023/07/09 09:38:51;;;;;;;;;;;51.40;31.80;;;;;;6154600;22;87380;-66
2023/07/09 09:41:23;;;;;;;12.85;7.00;;;51.50;31.50;;;;;;6154521;22;88823;-66
2023/07/09 09:43:52;;;;;;;8.70;7.82;;;51.60;32.50;;;;;;6152799;22;87603;-66
2023/07/09 09:46:23;;;;;;;7.85;7.03;;;51.30;31.80;;;;;;6136582;22;88118;-66
2023/07/09 09:48:53;;;;;;;9.93;8.25;;;50.90;32.90;;;;;;6124141;22;87706;-69
2023/07/09 09:51:19;;;;;;;8.80;7.90;;;50.80;33.30;;;;;;6153750;22;87249;-69
2023/07/09 09:53:49;;;;;;;9.82;7.88;;;50.60;33.20;;;;;;6150331;22;89817;-70
2023/07/09 09:56:29;;;;;;;9.93;8.35;;;51.00;32.30;;;;;;6147247;22;88111;-69
2023/07/09 09:58:56;;;;;;;8.63;7.78;;;51.40;31.90;;;;;;6155297;22;87146;-69
2023/07/09 10:01:34;;;;;;;9.40;7.93;;;50.90;33.20;;;;;;6152831;22;87438;-71
2023/07/09 10:04:02;;;;;;;8.27;6.50;;;49.70;33.30;;;;;;6151786;22;88541;-69
2023/07/09 10:06:33;;;;;;;10.30;6.90;;;49.20;34.50;;;;;;6151576;22;87954;-67
2023/07/09 10:09:05;;;;;;;7.75;6.38;;;48.60;34.60;;;;;;6148069;22;87333;-69
2023/07/09 10:11:47;;;;;;;10.70;5.80;;;47.40;35.80;;;;;;6152473;22;86975;-67
2023/07/09 10:14:16;;;;;;;6.88;4.50;;;45.80;36.40;;;;;;6151485;22;87904;-68
2023/07/09 10:16:47;;;;;;;9.68;3.90;;;44.10;38.40;;;;;;6152131;22;87975;-67
2023/07/09 10:19:24;;;;;;;10.10;4.72;;;43.00;39.90;;;;;;6152966;22;88291;-69
2023/07/09 10:22:05;;;;;;;6.00;3.72;;;41.90;40.50;;;;;;6152001;22;87419;-66
2023/07/09 10:24:39;;;;;;;6.03;4.20;;;40.90;42.40;;;;;;6152559;22;88153;-68
2023/07/09 10:27:11;;;;;;;10.00;3.65;;;40.30;42.70;;;;;;6128634;22;89677;-66
2023/07/09 10:29:42;;;;;;;6.65;3.28;;;39.80;43.50;;;;;;6155066;22;87373;-68
2023/07/09 10:32:26;;;;;;;5.35;3.10;;;39.20;44.70;;;;;;6155316;22;88159;-66
2023/07/09 10:35:15;;;;;;;6.68;3.03;;;38.40;45.30;;;;;;6154910;22;88143;-64
2023/07/09 10:37:53;;;;;;;4.80;3.00;;;37.80;46.80;;;;;;6153724;22;87165;-68
2023/07/09 10:40:30;;;;;;;7.80;3.10;;;37.50;46.50;;;;;;6155271;22;87302;-66
2023/07/09 10:42:59;;;;;;;6.35;2.50;;;37.30;46.90;;;;;;6156149;22;87129;-68
2023/07/09 10:45:42;;;;;;;6.50;2.67;;;37.00;47.30;;;;;;6154323;22;88995;-69
2023/07/09 10:48:16;;;;;;;11.15;2.78;;;37.00;46.90;;;;;;6156869;22;87323;-66
2023/07/09 10:50:52;;;;;;;9.65;2.60;;;36.90;44.90;;;;;;6153293;22;87288;-69
2023/07/09 10:53:30;;;;;;;7.93;2.00;;;36.70;46.70;;;;;;6152780;22;87286;-70
2023/07/09 10:56:14;;;;;;;7.10;2.33;;;36.60;44.30;;;;;;6152064;22;88281;-67
2023/07/09 10:58:49;;;;;;;3.65;2.15;;;36.50;44.80;;;;;;6154721;22;87154;-68
2023/07/09 11:01:17;;;;;;;5.65;2.90;;;36.60;44.90;;;;;;6155130;22;87608;-68
2023/07/09 11:03:56;;;;;;;5.15;2.55;;;36.40;43.50;;;;;;6157113;22;86969;-69
2023/07/09 11:06:34;;;;;;;5.65;2.38;;;36.20;43.50;;;;;;6149997;22;88097;-69
2023/07/09 11:09:04;;;;;;;5.90;2.60;;;36.20;45.40;;;;;;6155113;22;87366;-70
2023/07/09 11:11:32;;;;;;;5.30;2.60;;;36.30;47.60;;;;;;6154609;22;88180;-71
2023/07/09 11:14:10;;;;;;;7.72;2.40;;;36.30;44.10;;;;;;6150687;22;87377;-69
2023/07/09 11:16:39;;;;;;;5.60;2.45;;;36.40;45.30;;;;;;6154578;22;87899;-71
2023/07/09 11:19:13;;;;;;;4.72;2.22;;;36.30;46.00;;;;;;6154498;22;89108;-69
2023/07/09 11:21:59;;;;;;;5.32;2.28;;;36.20;43.00;;;;;;6156670;22;87358;-69
2023/07/09 11:24:50;;;;;;;4.82;1.73;;;36.10;45.60;;;;;;6154675;22;87420;-70
2023/07/09 11:27:25;;;;;;;7.13;1.70;;;36.00;46.80;;;;;;6155307;22;87834;-70
2023/07/09 11:30:01;;;;;;;;;;;36.10;45.40;;;;;;6155207;22;87171;-70
2023/07/09 11:32:28;;;;;;;4.45;2.03;;;35.90;45.10;;;;;;6156432;22;87338;-69
2023/07/09 11:34:53;;;;;;;6.95;2.30;;;35.90;45.00;;;;;;6156327;22;87064;-67
2023/07/09 11:37:25;;;;;;;5.82;3.05;;;36.00;47.60;;;;;;6153882;22;89448;-69
2023/07/09 11:39:51;;;;;;;6.30;2.05;;;35.90;46.70;;;;;;6144062;22;88766;-70
2023/07/09 11:42:32;;;;;;;6.53;2.05;;;35.90;45.40;;;;;;6145111;22;87624;-68
2023/07/09 11:45:03;;;;;;;5.07;2.00;;;35.90;42.30;;;;;;6154444;22;87575;-67
2023/07/09 11:47:36;;;;;;;6.72;2.47;;;35.70;40.80;;;;;;6154756;22;87665;-69
2023/07/09 11:50:06;;;;;;;4.32;2.17;;;35.70;45.00;;;;;;6157257;22;88776;-68
2023/07/09 11:52:51;;;;;;;4.53;1.75;;;35.60;45.10;;;;;;6156291;22;87541;-69
2023/07/09 11:55:38;;;;;;;3.58;1.88;;;35.60;42.80;;;;;;6157167;22;86814;-68
2023/07/09 11:58:04;;;;;;;5.35;1.98;;;35.60;41.40;;;;;;6148298;22;88226;-71
2023/07/09 12:00:41;;;;;;;4.88;1.92;;;35.60;45.10;;;;;;6142893;22;88419;-68
2023/07/09 12:03:15;;;;;;;5.45;2.05;;;35.60;43.10;;;;;;6152024;22;88225;-70
2023/07/09 12:05:59;;;;;;;6.18;1.67;;;35.60;41.30;;;;;;6152924;22;87678;-70
2023/07/09 12:08:36;;;;;;;5.20;1.52;;;35.70;44.20;;;;;;6151462;22;87703;-70
2023/07/09 12:11:02;;;;;;;5.15;1.40;;;35.60;40.90;;;;;;6136991;22;87452;-72
2023/07/09 12:13:28;;;;;;;6.05;1.35;;;35.80;41.30;;;;;;6148835;22;87331;-69
2023/07/09 12:15:54;;;;;;;8.73;1.30;;;35.70;40.60;;;;;;6153961;22;87329;-70
2023/07/09 12:18:20;;;;;;;3.15;1.33;;;35.80;40.10;;;;;;6153082;22;88930;-71
2023/07/09 12:20:50;;;;;;;2.88;1.08;;;35.70;41.50;;;;;;6155921;22;86786;-70
2023/07/09 12:23:27;;;;;;;3.95;1.40;;;35.80;40.50;;;;;;6157493;22;87361;-70
2023/07/09 12:25:53;;;;;;;2.50;1.13;;;35.90;39.70;;;;;;6156582;22;87351;-70
2023/07/09 12:28:20;;;;;;;5.18;1.30;;;36.10;40.20;;;;;;6155866;22;88485;-68
2023/07/09 12:30:48;;;;;;;4.47;1.40;;;36.20;39.00;;;;;;6153710;22;88676;-69
2023/07/09 12:33:25;;;;;;;5.63;1.27;;;36.20;39.30;;;;;;6152989;22;87351;-70
2023/07/09 12:36:02;;;;;;;2.88;1.40;;;36.00;38.10;;;;;;6154214;22;87438;-72
2023/07/09 12:38:42;;;;;;;4.18;1.15;;;36.00;36.70;;;;;;6154081;22;88048;-70
2023/07/09 12:41:24;;;;;;;4.97;1.10;;;36.10;38.50;;;;;;6172785;22;87642;-69
2023/07/09 12:43:52;;;;;;;3.45;1.27;;;36.10;36.40;;;;;;6181847;22;87279;-68
2023/07/09 12:46:19;;;;;;;4.55;1.58;;;35.80;38.10;;;;;;6186695;22;86382;-67
2023/07/09 12:48:48;;;;;;;4.40;1.42;;;35.80;37.50;;;;;;6185218;22;88091;-68
2023/07/09 12:51:28;;;;;;;3.20;1.55;;;35.90;37.60;;;;;;6186048;22;87374;-69
2023/07/09 12:54:23;;;;;;;3.10;1.25;;;36.00;37.30;;;;;;6186674;22;88384;-69
2023/07/09 12:56:54;;;;;;;3.67;1.30;;;35.90;39.80;;;;;;6151608;22;87394;-67
2023/07/09 12:59:28;;;;;;;4.50;2.50;;;35.90;40.20;;;;;;6185174;22;88176;-69
2023/07/09 13:02:02;;;;;;;3.40;1.33;;;36.00;39.80;;;;;;6186149;22;88518;-69
2023/07/09 13:04:36;;;;;;;2.35;0.80;;;36.00;38.00;;;;;;6187208;22;87269;-70
2023/07/09 13:07:02;;;;;;;3.53;1.20;;;35.90;35.60;;;;;;6188877;22;87370;-71
2023/07/09 13:09:28;;;;;;;3.00;1.35;;;35.70;37.70;;;;;;6187752;22;88011;-70
2023/07/09 13:11:58;;;;;;;6.55;1.25;;;35.80;40.60;;;;;;6188469;22;87097;-69
2023/07/09 13:14:30;;;;;;;2.80;1.30;;;36.00;39.70;;;;;;6188279;22;87231;-68
2023/07/09 13:17:06;;;;;;;4.50;1.48;;;36.00;40.00;;;;;;6187822;22;87317;-70
2023/07/09 13:19:33;;;;;;;3.22;1.00;;;36.00;39.40;;;;;;6187547;22;88370;-68
2023/07/09 13:21:59;;;;;;;4.20;1.13;;;36.10;38.70;;;;;;6188364;22;89523;-68
2023/07/09 13:24:29;;;;;;;2.95;1.10;;;36.10;37.00;;;;;;6186593;22;87162;-68
2023/07/09 13:26:58;;;;;;;3.83;1.20;;;36.00;37.10;;;;;;6186099;22;88492;-68
2023/07/09 13:29:23;;;;;;;1.75;1.05;;;36.00;38.20;;;;;;6187188;22;88590;-69
2023/07/09 13:31:49;;;;;;;2.58;0.88;;;36.10;38.50;;;;;;6186765;22;87411;-69
2023/07/09 13:34:26;;;;;;;2.53;1.40;;;35.90;37.90;;;;;;6187047;22;87009;-68
2023/07/09 13:36:55;;;;;;;3.15;1.08;;;35.80;35.00;;;;;;6189142;22;86259;-68
2023/07/09 13:39:22;;;;;;;2.03;0.95;;;35.80;37.50;;;;;;6187854;22;88650;-70
2023/07/09 13:41:50;;;;;;;2.58;1.75;;;35.80;36.90;;;;;;6187844;22;87882;-68
2023/07/09 13:44:28;;;;;;;3.38;1.33;;;35.70;35.20;;;;;;6187166;22;87912;-69
2023/07/09 13:46:55;;;;;;;2.60;1.20;;;35.70;36.00;;;;;;6188070;22;87467;-68
2023/07/09 13:49:23;;;;;;;3.20;1.02;;;35.70;37.40;;;;;;6187806;22;87918;-69
2023/07/09 13:51:51;;;;;;;2.80;1.15;;;35.60;36.90;;;;;;6187536;22;87997;-69
2023/07/09 13:54:35;;;;;;;2.83;0.90;;;35.70;36.30;;;;;;6187978;22;87367;-68
2023/07/09 13:57:01;;;;;;;2.88;1.10;;;35.60;35.20;;;;;;6187539;22;87323;-68
2023/07/09 13:59:28;;;;;;;2.22;0.90;;;35.50;38.50;;;;;;6188048;22;87251;-69
2023/07/09 14:01:56;;;;;;;4.55;1.35;;;35.50;39.10;;;;;;6187701;22;87036;-69
2023/07/09 14:04:23;;;;;;;2.95;1.55;;;35.70;39.40;;;;;;6188261;22;87318;-69
2023/07/09 14:06:49;;;;;;;2.05;1.05;;;35.70;38.50;;;;;;6188360;22;87502;-69
2023/07/09 14:09:16;;;;;;;2.63;0.90;;;35.50;38.90;;;;;;6187033;22;88843;-67
2023/07/09 14:11:45;;;;;;;2.40;1.05;;;35.40;36.10;;;;;;6186364;22;89689;-68
2023/07/09 14:14:27;;;;;;;4.55;1.25;;;35.30;38.30;;;;;;6187915;22;87255;-68
2023/07/09 14:16:53;;;;;;;3.60;0.80;;;35.30;36.90;;;;;;6187365;22;87588;-67
2023/07/09 14:19:21;;;;;;;2.47;1.00;;;35.30;34.80;;;;;;6189123;22;88678;-68
2023/07/09 14:21:48;;;;;;;2.45;0.93;;;35.10;35.50;;;;;;6187508;22;87801;-69
2023/07/09 14:24:28;;;;;;;6.10;1.17;;;35.00;36.80;;;;;;6188408;22;87130;-68
2023/07/09 14:26:56;;;;;;;3.45;0.90;;;35.00;35.40;;;;;;6188662;22;86825;-69
2023/07/09 14:29:23;;;;;;;4.15;1.27;;;35.00;35.20;;;;;;6187807;22;87550;-69
2023/07/09 14:31:49;;;;;;;2.90;1.75;;;35.00;37.50;;;;;;6186961;22;87844;-68
2023/07/09 14:34:28;;;;;;;5.07;1.45;;;35.00;35.80;;;;;;6186912;22;88265;-69
2023/07/09 14:36:56;;;;;;;4.05;1.17;;;35.00;38.00;;;;;;6188500;22;87350;-70
2023/07/09 14:39:22;;;;;;;2.42;0.82;;;35.00;38.10;;;;;;6187957;22;88543;-68
2023/07/09 14:41:48;;;;;;;2.45;1.00;;;35.00;37.90;;;;;;6187323;22;87830;-69
2023/07/09 14:44:31;;;;;;;3.30;1.48;;;34.90;38.60;;;;;;6187615;22;87394;-69
2023/07/09 14:46:58;;;;;;;3.95;1.67;;;34.90;40.40;;;;;;6187996;22;87474;-68
2023/07/09 14:49:25;;;;;;;4.25;2.75;;;34.90;40.10;;;;;;6187487;22;87486;-69
2023/07/09 14:51:52;;;;;;;3.35;1.33;;;34.90;40.00;;;;;;6186005;22;87115;-69
2023/07/09 14:54:29;;;;;;;6.00;1.83;;;35.00;39.10;;;;;;6186150;22;87182;-67
2023/07/09 14:56:56;;;;;;;4.68;1.65;;;35.00;39.50;;;;;;6159013;22;87547;-68
2023/07/09 14:59:22;;;;;;;4.45;1.58;;;34.80;40.00;;;;;;6186616;22;88459;-68
2023/07/09 15:01:49;;;;;;;5.35;1.55;;;34.90;40.80;;;;;;6187237;22;89165;-69
2023/07/09 15:04:20;;;;;;;5.47;1.60;;;34.70;38.90;;;;;;6187778;22;87227;-69
2023/07/09 15:06:51;;;;;;;3.22;1.63;;;34.70;40.00;;;;;;6188117;22;87390;-70
2023/07/09 15:09:21;;;;;;;4.47;1.60;;;34.60;39.30;;;;;;6187286;22;88006;-69
2023/07/09 15:11:49;;;;;;;4.55;1.50;;;34.70;40.20;;;;;;6187898;22;87226;-70
2023/07/09 15:14:15;;;;;;;4.45;1.10;;;34.70;39.60;;;;;;6187859;22;87464;-69
2023/07/09 15:16:41;;;;;;;3.03;1.17;;;34.70;39.20;;;;;;6187129;22;86664;-69
2023/07/09 15:19:14;;;;;;;3.55;1.13;;;34.60;36.70;;;;;;6187864;22;88543;-68
2023/07/09 15:21:40;;;;;;;4.32;1.00;;;34.50;36.70;;;;;;6187201;22;87319;-69
2023/07/09 15:24:26;;;;;;;6.30;1.63;;;34.50;37.70;;;;;;6187657;22;88482;-70
2023/07/09 15:26:54;;;;;;;3.03;0.75;;;34.40;36.30;;;;;;6189076;22;87177;-69
2023/07/09 15:29:20;;;;;;;3.92;1.02;;;34.40;36.10;;;;;;6188462;22;87572;-69
2023/07/09 15:31:46;;;;;;;7.97;1.73;;;34.30;36.30;;;;;;6188541;22;87719;-69
2023/07/09 15:34:14;;;;;;;2.60;0.98;;;34.40;36.90;;;;;;6189137;22;87529;-68
2023/07/09 15:36:43;;;;;;;3.22;1.83;;;34.40;36.20;;;;;;6189265;22;87182;-69
2023/07/09 15:39:11;;;;;;;3.38;1.65;;;34.50;36.60;;;;;;6188975;22;88723;-68
2023/07/09 15:41:36;;;;;;;4.28;1.50;;;34.50;36.10;;;;;;6188930;22;87146;-69
2023/07/09 15:44:02;;;;;;;6.00;1.13;;;34.60;36.90;;;;;;6188909;22;87344;-68
2023/07/09 15:46:28;;;;;;;4.82;1.80;;;34.60;36.50;;;;;;6189451;22;87601;-69
2023/07/09 15:48:55;;;;;;;2.60;1.05;;;34.70;37.70;;;;;;6187619;22;88256;-68
2023/07/09 15:51:20;;;;;;;4.47;1.45;;;34.70;35.00;;;;;;6188769;22;88252;-70
2023/07/09 15:53:46;;;;;;;5.53;0.93;;;34.70;35.50;;;;;;6188963;22;87105;-69
2023/07/09 15:56:16;;;;;;;4.40;1.00;;;34.70;35.00;;;;;;6188761;22;87335;-69
2023/07/09 15:58:43;;;;;;;4.75;1.05;;;34.70;33.80;;;;;;6186964;22;87912;-69
2023/07/09 16:01:16;;;;;;;6.05;1.42;;;34.70;35.00;;;;;;6188847;22;87465;-69
2023/07/09 16:03:47;;;;;;;3.67;0.90;;;34.70;33.20;;;;;;6188298;22;87238;-68
2023/07/09 16:06:25;;;;;;;5.93;1.30;;;34.70;33.90;;;;;;6189472;22;86274;-70
2023/07/09 16:08:51;;;;;;;4.43;0.98;;;34.70;35.00;;;;;;6188277;22;88694;-68
2023/07/09 16:11:22;;;;;;;3.60;1.58;;;34.70;34.80;;;;;;6189102;22;87781;-68
2023/07/09 16:13:49;;;;;;;7.22;1.17;;;34.80;34.50;;;;;;6188888;22;88174;-68
2023/07/09 16:16:20;;;;;;;3.22;1.13;;;34.80;32.60;;;;;;6188275;22;87376;-69